sensor_id;sensor_type;location;lat;lon;timestamp;pressure;altitude;pressure_sealevel;temperature;humidity
6194;BME280;3130;41.564;23.280;2022-12-28T00:00:14;99867.13;;;6.52;94.00
6194;BME280;3130;41.564;23.280;2022-12-28T00:02:43;99867.06;;;6.54;93.80
6194;BME280;3130;41.564;23.280;2022-12-28T00:05:10;99872.75;;;6.63;93.68
6194;BME280;3130;41.564;23.280;2022-12-28T00:07:37;99872.59;;;6.68;93.76
6194;BME280;3130;41.564;23.280;2022-12-28T00:10:05;99879.59;;;6.61;93.36
6194;BME280;3130;41.564;23.280;2022-12-28T00:12:32;99877.97;;;6.59;93.58
6194;BME280;3130;41.564;23.280;2022-12-28T00:14:59;99882.41;;;6.52;93.15
6194;BME280;3130;41.564;23.280;2022-12-28T00:17:26;99884.09;;;6.52;93.46
6194;BME280;3130;41.564;23.280;2022-12-28T00:19:55;99852.53;;;6.28;93.53
6194;BME280;3130;41.564;23.280;2022-12-28T00:22:23;99873.44;;;6.39;93.88
6194;BME280;3130;41.564;23.280;2022-12-28T00:24:50;99891.94;;;6.46;94.04
6194;BME280;3130;41.564;23.280;2022-12-28T00:27:17;99850.03;;;6.27;94.13
6194;BME280;3130;41.564;23.280;2022-12-28T00:29:44;99888.59;;;6.44;93.67
6194;BME280;3130;41.564;23.280;2022-12-28T00:32:11;99876.97;;;6.35;93.90
6194;BME280;3130;41.564;23.280;2022-12-28T00:34:38;99895.44;;;6.42;93.34
6194;BME280;3130;41.564;23.280;2022-12-28T00:37:07;99892.84;;;6.43;94.16
6194;BME280;3130;41.564;23.280;2022-12-28T00:39:34;99891.22;;;6.41;93.71
6194;BME280;3130;41.564;23.280;2022-12-28T00:42:01;99903.25;;;6.36;93.78
6194;BME280;3130;41.564;23.280;2022-12-28T00:44:28;99852.44;;;6.01;93.96
6194;BME280;3130;41.564;23.280;2022-12-28T00:46:55;99900.97;;;6.27;94.16
6194;BME280;3130;41.564;23.280;2022-12-28T00:49:22;99896.88;;;6.21;94.47
6194;BME280;3130;41.564;23.280;2022-12-28T00:51:49;99899.50;;;6.18;94.70
6194;BME280;3130;41.564;23.280;2022-12-28T00:54:17;99906.50;;;6.10;94.45
6194;BME280;3130;41.564;23.280;2022-12-28T00:56:44;99908.16;;;6.11;94.74
6194;BME280;3130;41.564;23.280;2022-12-28T00:59:11;99915.81;;;6.11;95.31
6194;BME280;3130;41.564;23.280;2022-12-28T01:01:38;99878.69;;;6.03;95.72
6194;BME280;3130;41.564;23.280;2022-12-28T01:04:06;99896.97;;;6.17;95.29
6194;BME280;3130;41.564;23.280;2022-12-28T01:06:33;99906.28;;;6.18;95.52
6194;BME280;3130;41.564;23.280;2022-12-28T01:09:00;99902.19;;;6.12;94.88
6194;BME280;3130;41.564;23.280;2022-12-28T01:11:29;99913.97;;;6.16;95.58
6194;BME280;3130;41.564;23.280;2022-12-28T01:13:58;99905.66;;;6.10;95.52
6194;BME280;3130;41.564;23.280;2022-12-28T01:16:29;99909.13;;;6.07;95.58
6194;BME280;3130;41.564;23.280;2022-12-28T01:18:58;99907.34;;;6.11;95.72
6194;BME280;3130;41.564;23.280;2022-12-28T01:21:28;99912.31;;;6.15;96.09
6194;BME280;3130;41.564;23.280;2022-12-28T01:23:56;99910.47;;;6.20;95.91
6194;BME280;3130;41.564;23.280;2022-12-28T01:26:24;99888.50;;;6.16;95.71
6194;BME280;3130;41.564;23.280;2022-12-28T01:28:53;99911.03;;;6.31;95.28
6194;BME280;3130;41.564;23.280;2022-12-28T01:31:21;99905.13;;;6.29;95.40
6194;BME280;3130;41.564;23.280;2022-12-28T01:33:48;99907.84;;;6.23;95.49
6194;BME280;3130;41.564;23.280;2022-12-28T01:36:17;99876.72;;;6.12;95.38
6194;BME280;3130;41.564;23.280;2022-12-28T01:38:45;99904.13;;;6.35;94.98
6194;BME280;3130;41.564;23.280;2022-12-28T01:41:14;99900.63;;;6.39;95.24
6194;BME280;3130;41.564;23.280;2022-12-28T01:43:44;99899.09;;;6.33;94.42
6194;BME280;3130;41.564;23.280;2022-12-28T01:46:15;99901.72;;;6.30;94.84
6194;BME280;3130;41.564;23.280;2022-12-28T01:48:48;99903.44;;;6.30;94.88
6194;BME280;3130;41.564;23.280;2022-12-28T01:51:19;99899.22;;;6.29;94.75
6194;BME280;3130;41.564;23.280;2022-12-28T01:53:50;99894.16;;;6.27;95.05
6194;BME280;3130;41.564;23.280;2022-12-28T01:56:19;99893.34;;;6.25;95.11
6194;BME280;3130;41.564;23.280;2022-12-28T01:58:48;99887.44;;;6.25;95.21
6194;BME280;3130;41.564;23.280;2022-12-28T02:01:16;99897.53;;;6.28;95.28
6194;BME280;3130;41.564;23.280;2022-12-28T02:03:44;99900.09;;;6.28;94.66
6194;BME280;3130;41.564;23.280;2022-12-28T02:06:12;99895.88;;;6.27;95.11
6194;BME280;3130;41.564;23.280;2022-12-28T02:08:43;99895.88;;;6.27;94.90
6194;BME280;3130;41.564;23.280;2022-12-28T02:11:13;99872.44;;;6.14;94.76
6194;BME280;3130;41.564;23.280;2022-12-28T02:13:43;99870.09;;;6.07;94.87
6194;BME280;3130;41.564;23.280;2022-12-28T02:16:11;99892.69;;;6.19;95.17
6194;BME280;3130;41.564;23.280;2022-12-28T02:18:41;99902.00;;;6.20;95.06
6194;BME280;3130;41.564;23.280;2022-12-28T02:21:21;99871.78;;;6.06;95.35
6194;BME280;3130;41.564;23.280;2022-12-28T02:24:07;99891.13;;;6.13;95.47
6194;BME280;3130;41.564;23.280;2022-12-28T02:26:51;99883.50;;;6.13;95.67
6194;BME280;3130;41.564;23.280;2022-12-28T02:29:40;99885.22;;;6.13;95.09
6194;BME280;3130;41.564;23.280;2022-12-28T02:32:21;99835.16;;;5.82;95.31
6194;BME280;3130;41.564;23.280;2022-12-28T02:34:55;99835.19;;;5.80;95.68
6194;BME280;3130;41.564;23.280;2022-12-28T02:37:26;99878.47;;;6.12;95.59
6194;BME280;3130;41.564;23.280;2022-12-28T02:40:01;99877.66;;;6.10;95.59
6194;BME280;3130;41.564;23.280;2022-12-28T02:42:30;99884.44;;;6.09;95.31
6194;BME280;3130;41.564;23.280;2022-12-28T02:45:01;99813.44;;;5.67;94.64
6194;BME280;3130;41.564;23.280;2022-12-28T02:47:46;99876.06;;;6.06;95.30
6194;BME280;3130;41.564;23.280;2022-12-28T02:50:38;99870.31;;;5.99;95.38
6194;BME280;3130;41.564;23.280;2022-12-28T02:53:31;99874.53;;;5.99;95.08
6194;BME280;3130;41.564;23.280;2022-12-28T02:56:12;99868.75;;;5.94;95.49
6194;BME280;3130;41.564;23.280;2022-12-28T02:59:09;99882.91;;;6.04;95.53
6194;BME280;3130;41.564;23.280;2022-12-28T03:02:01;99849.28;;;5.92;94.90
6194;BME280;3130;41.564;23.280;2022-12-28T03:04:40;99860.16;;;5.98;95.41
6194;BME280;3130;41.564;23.280;2022-12-28T03:07:17;99864.34;;;6.00;95.63
6194;BME280;3130;41.564;23.280;2022-12-28T03:10:09;99853.56;;;5.91;95.41
6194;BME280;3130;41.564;23.280;2022-12-28T03:12:45;99857.84;;;5.89;95.63
6194;BME280;3130;41.564;23.280;2022-12-28T03:15:18;99864.47;;;5.96;95.38
6194;BME280;3130;41.564;23.280;2022-12-28T03:17:59;99860.25;;;5.95;95.45
6194;BME280;3130;41.564;23.280;2022-12-28T03:20:46;99868.78;;;5.93;95.44
6194;BME280;3130;41.564;23.280;2022-12-28T03:23:33;99803.72;;;5.51;95.26
6194;BME280;3130;41.564;23.280;2022-12-28T03:26:20;99852.22;;;5.77;95.37
6194;BME280;3130;41.564;23.280;2022-12-28T03:29:08;99879.16;;;5.87;95.68
6194;BME280;3130;41.564;23.280;2022-12-28T03:31:56;99873.31;;;5.82;95.71
6194;BME280;3130;41.564;23.280;2022-12-28T03:34:24;99877.47;;;5.86;95.38
6194;BME280;3130;41.564;23.280;2022-12-28T03:36:56;99878.38;;;5.83;95.44
6194;BME280;3130;41.564;23.280;2022-12-28T03:39:32;99879.25;;;5.82;95.41
6194;BME280;3130;41.564;23.280;2022-12-28T03:42:10;99856.69;;;5.67;95.41
6194;BME280;3130;41.564;23.280;2022-12-28T03:45:03;99857.56;;;5.68;95.42
6194;BME280;3130;41.564;23.280;2022-12-28T03:47:32;99880.22;;;5.78;95.82
6194;BME280;3130;41.564;23.280;2022-12-28T03:50:01;99868.53;;;5.70;96.05
6194;BME280;3130;41.564;23.280;2022-12-28T03:52:30;99878.59;;;5.73;96.01
6194;BME280;3130;41.564;23.280;2022-12-28T03:54:58;99884.50;;;5.75;96.54
6194;BME280;3130;41.564;23.280;2022-12-28T03:57:25;99881.28;;;5.68;96.15
6194;BME280;3130;41.564;23.280;2022-12-28T03:59:52;99893.06;;;5.72;96.65
6194;BME280;3130;41.564;23.280;2022-12-28T04:02:19;99874.69;;;5.61;96.24
6194;BME280;3130;41.564;23.280;2022-12-28T04:04:46;99888.09;;;5.68;96.49
6194;BME280;3130;41.564;23.280;2022-12-28T04:07:14;99887.22;;;5.67;96.46
6194;BME280;3130;41.564;23.280;2022-12-28T04:09:41;99888.91;;;5.68;96.96
6194;BME280;3130;41.564;23.280;2022-12-28T04:12:08;99885.53;;;5.68;96.65
6194;BME280;3130;41.564;23.280;2022-12-28T04:14:36;99888.78;;;5.73;97.17
6194;BME280;3130;41.564;23.280;2022-12-28T04:17:03;99889.66;;;5.72;96.70
6194;BME280;3130;41.564;23.280;2022-12-28T04:19:30;99892.94;;;5.77;96.79
6194;BME280;3130;41.564;23.280;2022-12-28T04:21:57;99890.34;;;5.80;96.74
6194;BME280;3130;41.564;23.280;2022-12-28T04:24:26;99895.44;;;5.80;96.51
6194;BME280;3130;41.564;23.280;2022-12-28T04:26:53;99886.00;;;5.83;96.75
6194;BME280;3130;41.564;23.280;2022-12-28T04:29:20;99892.75;;;5.86;96.90
6194;BME280;3130;41.564;23.280;2022-12-28T04:31:47;99886.66;;;5.91;96.60
6194;BME280;3130;41.564;23.280;2022-12-28T04:34:14;99869.91;;;5.83;96.26
6194;BME280;3130;41.564;23.280;2022-12-28T04:36:41;99888.06;;;6.01;96.24
6194;BME280;3130;41.564;23.280;2022-12-28T04:39:08;99892.88;;;6.13;95.50
6194;BME280;3130;41.564;23.280;2022-12-28T04:41:37;99884.50;;;6.08;95.35
6194;BME280;3130;41.564;23.280;2022-12-28T04:44:04;99902.88;;;6.19;95.14
6194;BME280;3130;41.564;23.280;2022-12-28T04:46:31;99896.00;;;6.22;95.38
6194;BME280;3130;41.564;23.280;2022-12-28T04:48:59;99895.81;;;6.28;95.04
6194;BME280;3130;41.564;23.280;2022-12-28T04:51:27;99894.03;;;6.32;94.81
6194;BME280;3130;41.564;23.280;2022-12-28T04:53:55;99900.78;;;6.33;94.60
6194;BME280;3130;41.564;23.280;2022-12-28T04:56:23;99911.41;;;6.48;95.07
6194;BME280;3130;41.564;23.280;2022-12-28T04:58:55;99919.69;;;6.55;94.39
6194;BME280;3130;41.564;23.280;2022-12-28T05:01:22;99917.78;;;6.63;94.48
6194;BME280;3130;41.564;23.280;2022-12-28T05:03:52;99924.34;;;6.70;94.07
6194;BME280;3130;41.564;23.280;2022-12-28T05:06:21;99908.38;;;6.65;94.30
6194;BME280;3130;41.564;23.280;2022-12-28T05:08:49;99923.97;;;6.83;92.89
6194;BME280;3130;41.564;23.280;2022-12-28T05:11:18;99922.31;;;6.82;93.03
6194;BME280;3130;41.564;23.280;2022-12-28T05:13:45;99930.69;;;6.86;93.22
6194;BME280;3130;41.564;23.280;2022-12-28T05:16:15;99942.44;;;6.91;93.55
6194;BME280;3130;41.564;23.280;2022-12-28T05:18:42;99926.34;;;6.89;93.03
6194;BME280;3130;41.564;23.280;2022-12-28T05:21:12;99937.22;;;6.96;92.88
6194;BME280;3130;41.564;23.280;2022-12-28T05:23:39;99927.94;;;6.93;92.86
6194;BME280;3130;41.564;23.280;2022-12-28T05:26:10;99928.63;;;6.98;93.00
6194;BME280;3130;41.564;23.280;2022-12-28T05:28:37;99935.41;;;6.99;92.88
6194;BME280;3130;41.564;23.280;2022-12-28T05:31:06;99942.09;;;7.03;93.12
6194;BME280;3130;41.564;23.280;2022-12-28T05:33:36;99901.03;;;6.83;92.79
6194;BME280;3130;41.564;23.280;2022-12-28T05:36:04;99931.81;;;7.04;92.75
6194;BME280;3130;41.564;23.280;2022-12-28T05:38:32;99909.97;;;6.96;92.73
6194;BME280;3130;41.564;23.280;2022-12-28T05:41:03;99935.00;;;7.12;92.60
6194;BME280;3130;41.564;23.280;2022-12-28T05:43:31;99931.56;;;7.13;92.73
6194;BME280;3130;41.564;23.280;2022-12-28T05:46:02;99897.44;;;6.90;92.50
6194;BME280;3130;41.564;23.280;2022-12-28T05:48:30;99941.75;;;7.13;93.20
6194;BME280;3130;41.564;23.280;2022-12-28T05:51:00;99940.00;;;7.15;93.13
6194;BME280;3130;41.564;23.280;2022-12-28T05:53:29;99939.94;;;7.17;92.93
6194;BME280;3130;41.564;23.280;2022-12-28T05:56:00;99944.19;;;7.18;93.22
6194;BME280;3130;41.564;23.280;2022-12-28T05:58:28;99928.38;;;7.07;93.16
6194;BME280;3130;41.564;23.280;2022-12-28T06:01:03;99937.47;;;7.14;93.25
6194;BME280;3130;41.564;23.280;2022-12-28T06:03:30;99945.06;;;7.17;93.60
6194;BME280;3130;41.564;23.280;2022-12-28T06:06:03;99955.16;;;7.20;93.65
6194;BME280;3130;41.564;23.280;2022-12-28T06:08:31;99951.59;;;7.25;93.45
6194;BME280;3130;41.564;23.280;2022-12-28T06:10:59;99956.66;;;7.27;93.52
6194;BME280;3130;41.564;23.280;2022-12-28T06:13:27;99957.41;;;7.30;93.28
6194;BME280;3130;41.564;23.280;2022-12-28T06:15:54;99960.66;;;7.35;92.79
6194;BME280;3130;41.564;23.280;2022-12-28T06:18:22;99961.53;;;7.34;92.59
6194;BME280;3130;41.564;23.280;2022-12-28T06:20:49;99963.00;;;7.41;92.60
6194;BME280;3130;41.564;23.280;2022-12-28T06:23:17;99969.63;;;7.47;92.03
6194;BME280;3130;41.564;23.280;2022-12-28T06:25:45;99974.69;;;7.48;92.03
6194;BME280;3130;41.564;23.280;2022-12-28T06:28:12;99933.75;;;7.25;92.10
6194;BME280;3130;41.564;23.280;2022-12-28T06:30:39;99950.38;;;7.37;92.02
6194;BME280;3130;41.564;23.280;2022-12-28T06:33:06;99970.38;;;7.50;92.12
6194;BME280;3130;41.564;23.280;2022-12-28T06:35:33;99971.03;;;7.57;92.30
6194;BME280;3130;41.564;23.280;2022-12-28T06:38:00;99975.09;;;7.62;92.48
6194;BME280;3130;41.564;23.280;2022-12-28T06:40:28;99970.63;;;7.69;91.80
6194;BME280;3130;41.564;23.280;2022-12-28T06:42:55;99965.06;;;7.58;90.80
6194;BME280;3130;41.564;23.280;2022-12-28T06:45:22;99960.97;;;7.52;90.35
6194;BME280;3130;41.564;23.280;2022-12-28T06:47:49;99866.00;;;6.90;90.69
6194;BME280;3130;41.564;23.280;2022-12-28T06:50:18;99983.63;;;7.63;90.46
6194;BME280;3130;41.564;23.280;2022-12-28T06:52:45;99983.38;;;7.70;89.78
6194;BME280;3130;41.564;23.280;2022-12-28T06:55:12;99985.78;;;7.75;89.71
6194;BME280;3130;41.564;23.280;2022-12-28T06:57:40;99990.00;;;7.76;89.54
6194;BME280;3130;41.564;23.280;2022-12-28T07:00:09;99953.88;;;7.62;89.53
6194;BME280;3130;41.564;23.280;2022-12-28T07:02:36;99987.13;;;7.85;89.69
6194;BME280;3130;41.564;23.280;2022-12-28T07:05:03;99976.81;;;7.89;89.39
6194;BME280;3130;41.564;23.280;2022-12-28T07:07:30;99966.78;;;7.83;89.06
6194;BME280;3130;41.564;23.280;2022-12-28T07:09:57;99838.72;;;7.19;88.54
6194;BME280;3130;41.564;23.280;2022-12-28T07:12:24;99983.88;;;8.07;88.27
6194;BME280;3130;41.564;23.280;2022-12-28T07:14:53;99921.34;;;7.67;88.43
6194;BME280;3130;41.564;23.280;2022-12-28T07:17:20;99993.88;;;8.13;88.26
6194;BME280;3130;41.564;23.280;2022-12-28T07:19:47;99975.25;;;8.09;87.82
6194;BME280;3130;41.564;23.280;2022-12-28T07:22:15;99976.88;;;8.12;87.34
6194;BME280;3130;41.564;23.280;2022-12-28T07:24:42;100013.78;;;8.29;87.39
6194;BME280;3130;41.564;23.280;2022-12-28T07:27:09;100008.41;;;8.37;87.05
6194;BME280;3130;41.564;23.280;2022-12-28T07:29:36;100011.66;;;8.42;86.90
6194;BME280;3130;41.564;23.280;2022-12-28T07:32:07;99999.97;;;8.35;86.94
6194;BME280;3130;41.564;23.280;2022-12-28T07:34:34;100023.31;;;8.50;87.01
6194;BME280;3130;41.564;23.280;2022-12-28T07:37:01;100017.16;;;8.54;86.91
6194;BME280;3130;41.564;23.280;2022-12-28T07:39:28;100010.34;;;8.55;86.50
6194;BME280;3130;41.564;23.280;2022-12-28T07:41:56;100018.56;;;8.63;86.46
6194;BME280;3130;41.564;23.280;2022-12-28T07:44:23;99986.66;;;8.50;86.39
6194;BME280;3130;41.564;23.280;2022-12-28T07:46:50;100031.75;;;8.77;85.98
6194;BME280;3130;41.564;23.280;2022-12-28T07:49:18;100014.25;;;8.65;85.54
6194;BME280;3130;41.564;23.280;2022-12-28T07:51:45;100029.22;;;8.75;85.83
6194;BME280;3130;41.564;23.280;2022-12-28T07:54:14;100029.94;;;8.79;85.68
6194;BME280;3130;41.564;23.280;2022-12-28T07:56:41;99987.16;;;8.61;86.28
6194;BME280;3130;41.564;23.280;2022-12-28T07:59:09;100001.88;;;8.77;86.19
6194;BME280;3130;41.564;23.280;2022-12-28T08:01:38;100007.56;;;8.85;86.20
6194;BME280;3130;41.564;23.280;2022-12-28T08:04:25;100025.47;;;9.08;86.24
6194;BME280;3130;41.564;23.280;2022-12-28T08:06:52;99973.47;;;8.85;85.64
6194;BME280;3130;41.564;23.280;2022-12-28T08:09:19;100030.66;;;9.29;85.22
6194;BME280;3130;41.564;23.280;2022-12-28T08:11:48;100031.25;;;9.36;84.98
6194;BME280;3130;41.564;23.280;2022-12-28T08:14:15;100032.75;;;9.41;84.82
6194;BME280;3130;41.564;23.280;2022-12-28T08:16:43;100035.03;;;9.49;84.25
6194;BME280;3130;41.564;23.280;2022-12-28T08:19:10;100031.38;;;9.54;83.87
6194;BME280;3130;41.564;23.280;2022-12-28T08:21:39;100036.28;;;9.60;83.34
6194;BME280;3130;41.564;23.280;2022-12-28T08:24:08;100033.63;;;9.63;82.86
6194;BME280;3130;41.564;23.280;2022-12-28T08:26:37;100031.06;;;9.63;82.56
6194;BME280;3130;41.564;23.280;2022-12-28T08:29:06;100028.41;;;9.65;83.39
6194;BME280;3130;41.564;23.280;2022-12-28T08:31:35;99995.06;;;9.45;83.34
6194;BME280;3130;41.564;23.280;2022-12-28T08:34:04;100034.88;;;9.75;83.27
6194;BME280;3130;41.564;23.280;2022-12-28T08:36:31;100033.81;;;9.80;82.80
6194;BME280;3130;41.564;23.280;2022-12-28T08:39:01;100035.47;;;9.81;83.06
6194;BME280;3130;41.564;23.280;2022-12-28T08:41:29;100027.91;;;9.78;83.18
6194;BME280;3130;41.564;23.280;2022-12-28T08:43:57;100026.13;;;9.80;82.79
6194;BME280;3130;41.564;23.280;2022-12-28T08:46:25;100005.19;;;9.69;82.78
6194;BME280;3130;41.564;23.280;2022-12-28T08:48:54;100017.47;;;9.83;82.27
6194;BME280;3130;41.564;23.280;2022-12-28T08:51:23;100048.38;;;10.01;82.10
6194;BME280;3130;41.564;23.280;2022-12-28T08:53:50;100048.41;;;10.00;81.86
6194;BME280;3130;41.564;23.280;2022-12-28T08:56:19;100046.91;;;9.94;81.93
6194;BME280;3130;41.564;23.280;2022-12-28T08:58:47;100043.78;;;9.86;82.03
6194;BME280;3130;41.564;23.280;2022-12-28T09:01:16;100042.25;;;9.82;83.00
6194;BME280;3130;41.564;23.280;2022-12-28T09:03:44;100047.13;;;9.88;82.79
6194;BME280;3130;41.564;23.280;2022-12-28T09:06:13;100051.25;;;9.92;82.86
6194;BME280;3130;41.564;23.280;2022-12-28T09:08:41;100045.34;;;9.90;82.15
6194;BME280;3130;41.564;23.280;2022-12-28T09:11:10;100043.00;;;9.84;81.32
6194;BME280;3130;41.564;23.280;2022-12-28T09:13:39;100056.28;;;9.94;80.26
6194;BME280;3130;41.564;23.280;2022-12-28T09:16:08;100045.03;;;9.98;80.29
6194;BME280;3130;41.564;23.280;2022-12-28T09:18:35;100045.03;;;9.98;79.43
6194;BME280;3130;41.564;23.280;2022-12-28T09:21:04;100038.16;;;10.00;79.36
6194;BME280;3130;41.564;23.280;2022-12-28T09:23:31;100017.22;;;9.89;78.64
6194;BME280;3130;41.564;23.280;2022-12-28T09:26:03;100038.13;;;10.01;79.45
6194;BME280;3130;41.564;23.280;2022-12-28T09:28:30;100032.72;;;10.07;79.55
6194;BME280;3130;41.564;23.280;2022-12-28T09:31:01;100034.16;;;10.14;79.35
6194;BME280;3130;41.564;23.280;2022-12-28T09:33:28;100038.13;;;10.21;78.40
6194;BME280;3130;41.564;23.280;2022-12-28T09:36:18;100025.84;;;10.29;77.39
6194;BME280;3130;41.564;23.280;2022-12-28T09:38:49;100018.06;;;10.30;77.40
6194;BME280;3130;41.564;23.280;2022-12-28T09:41:23;100023.09;;;10.33;77.60
6194;BME280;3130;41.564;23.280;2022-12-28T09:43:54;100009.50;;;10.31;77.39
6194;BME280;3130;41.564;23.280;2022-12-28T09:46:24;100009.50;;;10.31;77.03
6194;BME280;3130;41.564;23.280;2022-12-28T09:48:53;100007.59;;;10.36;76.76
6194;BME280;3130;41.564;23.280;2022-12-28T09:51:30;100022.13;;;10.56;76.61
6194;BME280;3130;41.564;23.280;2022-12-28T09:53:59;100024.63;;;10.57;75.97
6194;BME280;3130;41.564;23.280;2022-12-28T09:56:30;100022.66;;;10.64;75.18
6194;BME280;3130;41.564;23.280;2022-12-28T09:59:00;100020.84;;;10.66;75.06
6194;BME280;3130;41.564;23.280;2022-12-28T10:01:29;100001.53;;;10.17;77.70
6194;BME280;3130;41.564;23.280;2022-12-28T10:03:59;100027.22;;;9.95;79.72
6194;BME280;3130;41.564;23.280;2022-12-28T10:06:30;100024.56;;;9.76;81.32
6194;BME280;3130;41.564;23.280;2022-12-28T10:09:02;100004.31;;;9.49;82.30
6194;BME280;3130;41.564;23.280;2022-12-28T10:11:31;99991.97;;;9.37;82.79
6194;BME280;3130;41.564;23.280;2022-12-28T10:14:01;99977.91;;;9.25;83.86
6194;BME280;3130;41.564;23.280;2022-12-28T10:16:31;100017.22;;;9.46;84.33
6194;BME280;3130;41.564;23.280;2022-12-28T10:18:59;100015.91;;;9.36;85.43
6194;BME280;3130;41.564;23.280;2022-12-28T10:21:29;100014.91;;;9.40;85.69
6194;BME280;3130;41.564;23.280;2022-12-28T10:23:58;100017.59;;;9.35;86.36
6194;BME280;3130;41.564;23.280;2022-12-28T10:26:25;100013.44;;;9.33;86.79
6194;BME280;3130;41.564;23.280;2022-12-28T10:28:56;100005.78;;;9.33;86.38
6194;BME280;3130;41.564;23.280;2022-12-28T10:31:33;100002.22;;;9.37;86.35
6194;BME280;3130;41.564;23.280;2022-12-28T10:34:01;99998.69;;;9.39;86.31
6194;BME280;3130;41.564;23.280;2022-12-28T10:36:31;99968.38;;;9.29;86.40
6194;BME280;3130;41.564;23.280;2022-12-28T10:39:00;99997.22;;;9.55;86.43
6194;BME280;3130;41.564;23.280;2022-12-28T10:41:35;99992.97;;;9.54;86.37
6194;BME280;3130;41.564;23.280;2022-12-28T10:44:16;100007.13;;;9.64;86.25
6194;BME280;3130;41.564;23.280;2022-12-28T10:46:56;99994.31;;;9.64;85.64
6194;BME280;3130;41.564;23.280;2022-12-28T10:49:24;100000.91;;;9.70;85.42
6194;BME280;3130;41.564;23.280;2022-12-28T10:52:06;100000.13;;;9.68;85.46
6194;BME280;3130;41.564;23.280;2022-12-28T10:54:35;99956.78;;;9.42;85.48
6194;BME280;3130;41.564;23.280;2022-12-28T10:57:03;99893.19;;;9.10;85.10
6194;BME280;3130;41.564;23.280;2022-12-28T10:59:30;99798.59;;;8.44;85.25
6194;BME280;3130;41.564;23.280;2022-12-28T11:04:57;99962.03;;;9.60;84.67
6194;BME280;3130;41.564;23.280;2022-12-28T11:07:30;99953.50;;;9.60;84.60
6194;BME280;3130;41.564;23.280;2022-12-28T11:10:23;99973.34;;;9.76;84.13
6194;BME280;3130;41.564;23.280;2022-12-28T11:12:52;99987.38;;;9.88;83.92
6194;BME280;3130;41.564;23.280;2022-12-28T11:15:22;99977.03;;;9.91;83.79
6194;BME280;3130;41.564;23.280;2022-12-28T11:17:53;99992.13;;;9.97;82.05
6194;BME280;3130;41.564;23.280;2022-12-28T11:20:25;99927.78;;;9.63;80.82
6194;BME280;3130;41.564;23.280;2022-12-28T11:22:54;99982.66;;;9.98;81.10
6194;BME280;3130;41.564;23.280;2022-12-28T11:25:27;99992.13;;;9.97;80.63
6194;BME280;3130;41.564;23.280;2022-12-28T11:27:54;99991.16;;;10.01;80.68
6194;BME280;3130;41.564;23.280;2022-12-28T11:30:21;99979.28;;;9.98;80.59
6194;BME280;3130;41.564;23.280;2022-12-28T11:32:52;99984.13;;;10.05;79.99
6194;BME280;3130;41.564;23.280;2022-12-28T11:35:23;99961.34;;;9.98;79.73
6194;BME280;3130;41.564;23.280;2022-12-28T11:37:53;99971.22;;;10.07;79.70
6194;BME280;3130;41.564;23.280;2022-12-28T11:40:46;99974.31;;;10.15;79.64
6194;BME280;3130;41.564;23.280;2022-12-28T11:43:49;99973.94;;;10.24;80.18
6194;BME280;3130;41.564;23.280;2022-12-28T11:46:40;99965.66;;;10.37;79.88
6194;BME280;3130;41.564;23.280;2022-12-28T11:49:27;99962.69;;;10.46;79.93
6194;BME280;3130;41.564;23.280;2022-12-28T11:52:34;99967.25;;;10.60;77.88
6194;BME280;3130;41.564;23.280;2022-12-28T11:55:33;99963.72;;;10.62;77.47
6194;BME280;3130;41.564;23.280;2022-12-28T12:01:08;99889.44;;;10.41;76.87
6194;BME280;3130;41.564;23.280;2022-12-28T12:04:07;99952.25;;;10.89;76.38
6194;BME280;3130;41.564;23.280;2022-12-28T12:16:23;99924.84;;;11.08;75.30
6194;BME280;3130;41.564;23.280;2022-12-28T12:18:55;99893.22;;;10.89;74.79
6194;BME280;3130;41.564;23.280;2022-12-28T12:21:29;99927.50;;;11.06;75.12
6194;BME280;3130;41.564;23.280;2022-12-28T12:24:02;99914.66;;;11.06;74.95
6194;BME280;3130;41.564;23.280;2022-12-28T12:26:36;99917.16;;;11.08;74.65
6194;BME280;3130;41.564;23.280;2022-12-28T12:29:13;99937.88;;;11.22;74.45
6194;BME280;3130;41.564;23.280;2022-12-28T12:31:44;99932.88;;;11.19;74.33
6194;BME280;3130;41.564;23.280;2022-12-28T12:34:16;99883.84;;;10.88;74.50
6194;BME280;3130;41.564;23.280;2022-12-28T12:37:10;99931.97;;;11.20;74.62
6194;BME280;3130;41.564;23.280;2022-12-28T12:39:53;99931.06;;;11.21;74.64
6194;BME280;3130;41.564;23.280;2022-12-28T12:42:36;99932.75;;;11.22;74.12
6194;BME280;3130;41.564;23.280;2022-12-28T12:45:16;99904.22;;;11.09;74.17
6194;BME280;3130;41.564;23.280;2022-12-28T12:48:09;99935.25;;;11.23;74.03
6194;BME280;3130;41.564;23.280;2022-12-28T12:50:52;99929.53;;;11.17;73.30
6194;BME280;3130;41.564;23.280;2022-12-28T12:53:43;99935.31;;;11.22;73.30
6194;BME280;3130;41.564;23.280;2022-12-28T12:56:24;99933.50;;;11.24;73.00
6194;BME280;3130;41.564;23.280;2022-12-28T12:59:05;99938.56;;;11.25;72.42
6194;BME280;3130;41.564;23.280;2022-12-28T13:01:42;99934.63;;;11.18;72.94
6194;BME280;3130;41.564;23.280;2022-12-28T13:04:15;99939.00;;;11.16;73.72
6194;BME280;3130;41.564;23.280;2022-12-28T13:06:44;99936.56;;;11.13;73.72
6194;BME280;3130;41.564;23.280;2022-12-28T13:09:14;99925.63;;;11.10;73.61
6194;BME280;3130;41.564;23.280;2022-12-28T13:11:42;99917.16;;;11.08;73.99
6194;BME280;3130;41.564;23.280;2022-12-28T13:14:15;99892.31;;;10.90;74.08
6194;BME280;3130;41.564;23.280;2022-12-28T13:16:49;99898.00;;;10.97;73.96
6194;BME280;3130;41.564;23.280;2022-12-28T13:19:19;99906.03;;;11.07;74.45
6194;BME280;3130;41.564;23.280;2022-12-28T13:21:49;99916.47;;;11.04;74.49
6194;BME280;3130;41.564;23.280;2022-12-28T13:24:20;99907.09;;;11.03;74.38
6194;BME280;3130;41.564;23.280;2022-12-28T13:26:48;99912.22;;;11.03;74.75
6194;BME280;3130;41.564;23.280;2022-12-28T13:29:18;99911.25;;;11.06;74.96
6194;BME280;3130;41.564;23.280;2022-12-28T13:31:47;99814.69;;;10.50;75.22
6194;BME280;3130;41.564;23.280;2022-12-28T13:34:17;99873.50;;;10.90;75.12
6194;BME280;3130;41.564;23.280;2022-12-28T13:36:49;99910.84;;;11.15;74.81
6194;BME280;3130;41.564;23.280;2022-12-28T13:39:19;99909.00;;;11.17;74.31
6194;BME280;3130;41.564;23.280;2022-12-28T13:41:48;99909.09;;;11.15;74.27
6194;BME280;3130;41.564;23.280;2022-12-28T13:44:36;99895.03;;;11.05;74.30
6194;BME280;3130;41.564;23.280;2022-12-28T13:47:11;99914.09;;;11.18;74.11
6194;BME280;3130;41.564;23.280;2022-12-28T13:49:44;99892.25;;;11.10;74.67
6194;BME280;3130;41.564;23.280;2022-12-28T13:52:17;99884.81;;;11.04;74.77
6194;BME280;3130;41.564;23.280;2022-12-28T13:54:49;99874.00;;;10.98;75.23